Main page
METAR-TAF:

METAR-TAF

Airports :

Parma Airport

Parma, Italy

latitude: 44-49-17N, longitude: 010-17-41E, elevation: 50 m

Current weather observation

The report was made 44 minutes ago, at 10:50 UTC
Wind 3 kt from the Northwest, varying between West and North
Temperature 2°C
Humidity 87%
Pressure 1010 hPa
Visibility: 5000 m
mist

METAR: LIMP 221050Z 32003KT 270V010 5000 BR NSC 02/M00 Q1010

Time: 12:34 (11:34 UTC)

Forecast

The report was made 6 hours and 34 minutes ago, at 05:00 UTC
Forecast valid from 22 at 06 UTC to 23 at 06 UTC
Wind 5 kt from variable directions
Visibility 10 km or more
no clouds below 1500 m and no cumulonimbus

TAF: LIMP 220500Z 2206/2306 VRB05KT CAVOK

Weather observations and forecasts of more than 4000 airports (METAR and TAF reports).

The available stations are represented by yellow and red dots on the map.

Hover mouse over dot to see the name of the station.

Then click to see weather observations and forecasts.

To change the map : click on the green buttons with a black cross to zoom in, on the green button with a dash to zoom out, or on the green arrows for adjacent maps.


METAR-TAF: